createdAt,value
2023-05-05T00:01:03.055Z,96597.09
2023-05-05T00:03:30.978Z,96615.63
2023-05-05T00:05:58.899Z,96619.63
2023-05-05T00:08:26.765Z,96615.94
2023-05-05T00:10:54.614Z,96609.75
2023-05-05T00:13:22.969Z,96609.00
2023-05-05T00:15:54.010Z,96614.81
2023-05-05T00:18:22.368Z,96610.50
2023-05-05T00:20:50.517Z,96609.94
2023-05-05T00:23:18.614Z,96598.25
2023-05-05T00:25:46.585Z,96602.81
2023-05-05T00:28:15.120Z,96607.25
2023-05-05T00:30:42.966Z,96605.44
2023-05-05T00:33:12.223Z,96603.25
2023-05-05T00:35:40.399Z,96603.00
2023-05-05T00:38:08.570Z,96602.50
2023-05-05T00:43:05.284Z,96610.94
2023-05-05T00:45:33.210Z,96605.19
2023-05-05T00:48:01.876Z,96607.13
2023-05-05T00:50:32.364Z,96582.34
2023-05-05T00:53:02.567Z,96611.41
2023-05-05T00:55:31.069Z,96610.75
2023-05-05T00:57:59.605Z,96607.50
2023-05-05T01:00:28.126Z,96615.56
2023-05-05T01:02:56.197Z,96614.41
2023-05-05T01:05:25.816Z,96598.53
2023-05-05T01:08:13.067Z,96587.94
2023-05-05T01:10:46.282Z,96607.06
2023-05-05T01:13:26.332Z,96590.38
2023-05-05T01:16:01.625Z,96589.66
2023-05-05T01:18:33.752Z,96596.69
2023-05-05T01:21:06.567Z,96609.66
2023-05-05T01:23:57.925Z,96603.53
2023-05-05T01:26:52.022Z,96608.13
2023-05-05T01:29:53.038Z,96604.72
2023-05-05T01:32:26.868Z,96618.88
2023-05-05T01:34:59.498Z,96618.25
2023-05-05T01:37:30.218Z,96620.88
2023-05-05T01:40:03.486Z,96625.75
2023-05-05T01:42:33.698Z,96614.03
2023-05-05T01:45:04.178Z,96629.00
2023-05-05T01:47:33.748Z,96614.50
2023-05-05T01:50:02.788Z,96626.03
2023-05-05T01:52:31.815Z,96628.56
2023-05-05T01:55:00.387Z,96611.34
2023-05-05T01:57:31.217Z,96628.19
2023-05-05T02:00:06.361Z,96618.19
2023-05-05T02:02:37.812Z,96619.63
2023-05-05T02:05:07.647Z,96621.63
2023-05-05T02:07:36.894Z,96609.44
2023-05-05T02:10:06.039Z,96605.56
2023-05-05T02:12:37.092Z,96606.69
2023-05-05T02:15:06.169Z,96611.25
2023-05-05T02:17:35.408Z,96613.19
2023-05-05T02:20:05.126Z,96597.56
2023-05-05T02:22:33.106Z,96608.66
2023-05-05T02:25:00.965Z,96606.88
2023-05-05T02:27:29.764Z,96600.44
2023-05-05T02:30:02.598Z,96609.91
2023-05-05T02:32:35.298Z,96608.13
2023-05-05T02:35:11.981Z,96612.03
2023-05-05T02:37:43.219Z,96610.97
2023-05-05T02:40:12.517Z,96610.59
2023-05-05T02:42:42.622Z,96615.00
2023-05-05T02:45:13.619Z,96608.69
2023-05-05T02:47:41.595Z,96609.22
2023-05-05T02:50:11.672Z,96610.69
2023-05-05T02:52:39.603Z,96593.25
2023-05-05T02:55:08.397Z,96612.78
2023-05-05T02:57:42.442Z,96609.97
2023-05-05T03:00:17.622Z,96605.69
2023-05-05T03:02:55.526Z,96615.28
2023-05-05T03:05:29.866Z,96616.50
2023-05-05T03:08:05.274Z,96611.44
2023-05-05T03:10:41.119Z,96613.06
2023-05-05T03:13:12.617Z,96610.94
2023-05-05T03:15:45.719Z,96608.84
2023-05-05T03:18:16.101Z,96605.94
2023-05-05T03:20:45.232Z,96602.41
2023-05-05T03:23:14.594Z,96597.38
2023-05-05T03:25:43.477Z,96602.22
2023-05-05T03:28:11.334Z,96602.22
2023-05-05T03:30:39.121Z,96606.88
2023-05-05T03:33:07.422Z,96593.84
2023-05-05T03:35:35.222Z,96610.44
2023-05-05T03:38:04.478Z,96609.38
2023-05-05T03:40:43.005Z,96606.13
2023-05-05T03:43:11.735Z,96616.25
2023-05-05T03:45:39.664Z,96616.41
2023-05-05T03:48:09.605Z,96612.38
2023-05-05T03:50:38.069Z,96604.91
2023-05-05T03:53:07.285Z,96607.81
2023-05-05T03:55:35.232Z,96601.66
2023-05-05T03:58:03.343Z,96609.09
2023-05-05T04:00:31.105Z,96609.41
2023-05-05T04:02:59.001Z,96613.78
2023-05-05T04:05:27.312Z,96614.34
2023-05-05T04:07:55.036Z,96621.53
2023-05-05T04:10:24.193Z,96616.94
2023-05-05T04:12:52.049Z,96617.63
2023-05-05T04:15:19.849Z,96613.03
2023-05-05T04:17:47.602Z,96614.84
2023-05-05T04:20:15.430Z,96635.59
2023-05-05T04:22:43.185Z,96619.25
2023-05-05T04:25:11.260Z,96625.25
2023-05-05T04:27:41.549Z,96623.16
2023-05-05T04:30:10.774Z,96623.63
2023-05-05T04:32:38.555Z,96622.63
2023-05-05T04:35:07.064Z,96620.34
2023-05-05T04:37:34.763Z,96630.25
2023-05-05T04:40:02.640Z,96622.09
2023-05-05T04:42:30.581Z,96628.25
2023-05-05T04:44:59.716Z,96624.16
2023-05-05T04:47:27.595Z,96636.03
2023-05-05T04:49:56.004Z,96613.88
2023-05-05T04:52:23.870Z,96628.66
2023-05-05T04:54:51.573Z,96620.81
2023-05-05T04:57:19.247Z,96628.59
2023-05-05T04:59:47.028Z,96628.66
2023-05-05T05:02:16.282Z,96629.59
2023-05-05T05:04:44.020Z,96629.47
2023-05-05T05:07:11.694Z,96630.13
2023-05-05T05:09:39.467Z,96629.91
2023-05-05T05:12:07.964Z,96629.59
2023-05-05T05:14:38.070Z,96636.47
2023-05-05T05:17:05.974Z,96638.22
2023-05-05T05:19:35.761Z,96638.25
2023-05-05T05:22:03.486Z,96648.63
2023-05-05T05:24:31.334Z,96637.25
2023-05-05T05:26:59.133Z,96638.59
2023-05-05T05:29:27.161Z,96646.38
2023-05-05T05:31:54.950Z,96642.03
2023-05-05T05:34:22.776Z,96643.56
2023-05-05T05:36:51.891Z,96647.91
2023-05-05T05:39:19.657Z,96644.22
2023-05-05T05:41:47.398Z,96646.47
2023-05-05T05:44:15.206Z,96654.59
2023-05-05T05:46:43.120Z,96648.25
2023-05-05T05:49:11.002Z,96655.28
2023-05-05T05:51:38.812Z,96652.38
2023-05-05T05:54:07.919Z,96648.94
2023-05-05T05:56:35.659Z,96660.78
2023-05-05T05:59:04.623Z,96659.50
2023-05-05T06:01:32.460Z,96663.09
2023-05-05T06:04:00.455Z,96659.03
2023-05-05T06:06:28.754Z,96656.63
2023-05-05T06:08:56.755Z,96658.25
2023-05-05T06:11:25.893Z,96651.19
2023-05-05T06:13:53.589Z,96653.63
2023-05-05T06:16:21.386Z,96652.88
2023-05-05T06:18:49.109Z,96646.13
2023-05-05T06:21:17.549Z,96656.66
2023-05-05T06:23:45.282Z,96657.94
2023-05-05T06:26:13.024Z,96656.53
2023-05-05T06:28:42.466Z,96650.03
2023-05-05T06:31:10.295Z,96653.56
2023-05-05T06:33:38.362Z,96645.66
2023-05-05T06:36:06.711Z,96653.75
2023-05-05T06:38:34.423Z,96650.31
2023-05-05T06:41:02.473Z,96642.88
2023-05-05T06:43:30.875Z,96645.69
2023-05-05T06:46:00.006Z,96651.88
2023-05-05T06:48:27.855Z,96644.59
2023-05-05T06:50:55.824Z,96650.41
2023-05-05T06:53:23.549Z,96657.41
2023-05-05T06:55:51.544Z,96652.31
2023-05-05T06:58:19.319Z,96663.31
2023-05-05T07:00:47.111Z,96658.44
2023-05-05T07:03:16.404Z,96656.28
2023-05-05T07:05:44.448Z,96654.28
2023-05-05T07:08:12.711Z,96651.94
2023-05-05T07:10:40.501Z,96654.19
2023-05-05T07:13:08.621Z,96646.53
2023-05-05T07:15:36.727Z,96654.88
2023-05-05T07:18:04.698Z,96645.44
2023-05-05T07:20:33.806Z,96647.25
2023-05-05T07:23:01.548Z,96633.66
2023-05-05T07:25:29.318Z,96644.78
2023-05-05T07:27:57.132Z,96640.53
2023-05-05T07:30:26.101Z,96636.31
2023-05-05T07:32:55.031Z,96631.44
2023-05-05T07:35:23.213Z,96620.34
2023-05-05T07:37:52.383Z,96634.75
2023-05-05T07:40:20.622Z,96634.38
2023-05-05T07:42:48.527Z,96626.72
2023-05-05T07:45:16.237Z,96628.59
2023-05-05T07:47:44.175Z,96620.66
2023-05-05T07:50:12.836Z,96637.34
2023-05-05T07:55:12.790Z,96618.72
2023-05-05T07:57:40.621Z,96630.91
2023-05-05T08:00:09.708Z,96616.81
2023-05-05T08:02:37.809Z,96619.94
2023-05-05T08:05:06.701Z,96618.78
2023-05-05T08:07:36.577Z,96620.78
2023-05-05T08:10:04.419Z,96615.34
2023-05-05T08:12:55.905Z,96614.16
2023-05-05T08:15:23.667Z,96609.38
2023-05-05T08:17:52.754Z,96611.09
2023-05-05T08:20:22.039Z,96610.81
2023-05-05T08:22:51.602Z,96605.69
2023-05-05T08:25:19.408Z,96602.56
2023-05-05T08:27:48.572Z,96609.66
2023-05-05T08:30:20.810Z,96602.94
2023-05-05T08:32:48.624Z,96594.41
2023-05-05T08:35:16.395Z,96609.44
2023-05-05T08:37:44.332Z,96602.50
2023-05-05T08:40:14.044Z,96599.53
2023-05-05T08:42:42.050Z,96603.06
2023-05-05T08:45:12.196Z,96595.34
2023-05-05T08:47:40.901Z,96590.72
2023-05-05T08:50:11.875Z,96579.44
2023-05-05T08:52:41.855Z,96590.81
2023-05-05T08:55:16.342Z,96588.03
2023-05-05T08:57:50.443Z,96575.78
2023-05-05T09:00:21.665Z,96578.97
2023-05-05T09:02:50.640Z,96583.66
2023-05-05T09:05:19.268Z,96593.00
2023-05-05T09:07:47.639Z,96594.09
2023-05-05T09:10:15.894Z,96583.94
2023-05-05T09:12:44.095Z,96583.06
2023-05-05T09:15:14.939Z,96580.56
2023-05-05T09:17:44.331Z,96582.16
2023-05-05T09:20:14.454Z,96583.84
2023-05-05T09:22:43.901Z,96579.91
2023-05-05T09:25:12.900Z,96569.50
2023-05-05T09:27:42.243Z,96571.22
2023-05-05T09:30:11.078Z,96571.63
2023-05-05T09:32:48.870Z,96564.19
2023-05-05T09:35:17.649Z,96562.81
2023-05-05T09:37:45.862Z,96556.56
2023-05-05T09:40:15.695Z,96559.41
2023-05-05T09:42:44.329Z,96555.81
2023-05-05T09:45:27.542Z,96554.06
2023-05-05T09:48:00.393Z,96546.38
2023-05-05T09:50:30.752Z,96543.22
2023-05-05T09:52:59.910Z,96533.22
2023-05-05T09:55:27.814Z,96530.91
2023-05-05T09:57:55.840Z,96529.09
2023-05-05T10:00:39.244Z,96527.13
2023-05-05T10:03:08.438Z,96525.66
2023-05-05T10:05:48.724Z,96528.50
2023-05-05T10:08:17.389Z,96520.44
2023-05-05T10:10:50.576Z,96520.69
2023-05-05T10:13:20.045Z,96516.53
2023-05-05T10:15:49.410Z,96517.50
2023-05-05T10:18:21.844Z,96511.75
2023-05-05T10:20:54.258Z,96503.41
2023-05-05T10:23:24.900Z,96512.44
2023-05-05T10:25:59.470Z,96498.13
2023-05-05T10:28:33.514Z,96510.38
2023-05-05T10:31:07.838Z,96496.88
2023-05-05T10:33:55.247Z,96498.91
2023-05-05T10:36:24.329Z,96494.25
2023-05-05T10:38:57.763Z,96476.25
2023-05-05T10:41:26.201Z,96496.25
2023-05-05T10:43:57.353Z,96486.06
2023-05-05T10:46:26.149Z,96482.59
2023-05-05T10:49:04.056Z,96468.66
2023-05-05T10:51:42.246Z,96482.38
2023-05-05T10:54:18.061Z,96471.78
2023-05-05T10:56:47.991Z,96464.78
2023-05-05T10:59:47.316Z,96468.91
2023-05-05T11:02:23.756Z,96458.09
2023-05-05T11:05:18.130Z,96456.72
2023-05-05T11:07:46.822Z,96459.53
2023-05-05T11:10:16.310Z,96447.13
2023-05-05T11:13:21.181Z,96455.53
2023-05-05T11:15:50.373Z,96423.22
2023-05-05T11:18:36.489Z,96433.19
2023-05-05T11:21:18.733Z,96425.66
2023-05-05T11:23:48.587Z,96421.41
2023-05-05T11:26:18.270Z,96416.91
2023-05-05T11:28:58.591Z,96419.41
2023-05-05T11:31:26.969Z,96426.03
2023-05-05T11:33:54.907Z,96425.63
2023-05-05T11:36:41.461Z,96417.34
2023-05-05T11:39:10.796Z,96416.41
2023-05-05T11:41:53.731Z,96408.53
2023-05-05T11:44:30.416Z,96409.44
2023-05-05T11:47:32.814Z,96419.63
2023-05-05T11:50:19.428Z,96409.31
2023-05-05T11:52:49.266Z,96412.00
2023-05-05T11:55:23.392Z,96405.53
2023-05-05T11:57:51.610Z,96406.84
2023-05-05T12:00:20.013Z,96413.06
2023-05-05T12:02:48.263Z,96410.00
2023-05-05T12:05:21.359Z,96403.75
2023-05-05T12:07:58.014Z,96411.34
2023-05-05T12:10:25.799Z,96408.09
2023-05-05T12:12:55.355Z,96409.63
2023-05-05T12:15:31.974Z,96390.81
2023-05-05T12:18:02.381Z,96400.00
2023-05-05T12:20:32.413Z,96398.59
2023-05-05T12:23:05.713Z,96392.06
2023-05-05T12:25:38.243Z,96399.16
2023-05-05T12:28:07.156Z,96399.25
2023-05-05T12:30:35.534Z,96381.00
2023-05-05T12:33:04.115Z,96371.53
2023-05-05T12:35:32.439Z,96383.25
2023-05-05T12:38:00.341Z,96374.72
2023-05-05T12:40:46.198Z,96367.66
2023-05-05T12:43:32.238Z,96358.84
2023-05-05T12:46:04.516Z,96357.59
2023-05-05T12:48:32.714Z,96351.25
2023-05-05T12:51:20.522Z,96353.75
2023-05-05T12:53:49.492Z,96338.91
2023-05-05T12:56:36.545Z,96336.91
2023-05-05T12:59:05.810Z,96327.22
2023-05-05T13:01:34.205Z,96328.69
2023-05-05T13:04:09.100Z,96304.53
2023-05-05T13:06:37.624Z,96309.69
2023-05-05T13:09:06.145Z,96313.09
2023-05-05T13:11:39.200Z,96297.41
2023-05-05T13:14:08.181Z,96300.47
2023-05-05T13:16:36.304Z,96276.03
2023-05-05T13:19:04.181Z,96294.25
2023-05-05T13:21:31.862Z,96279.25
2023-05-05T13:24:12.412Z,96272.72
2023-05-05T13:26:48.793Z,96268.25
2023-05-05T13:29:17.370Z,96265.28
2023-05-05T13:31:45.648Z,96260.31
2023-05-05T13:34:13.564Z,96258.56
2023-05-05T13:36:41.333Z,96257.00
2023-05-05T13:39:09.451Z,96266.91
2023-05-05T13:41:37.734Z,96263.53
2023-05-05T13:44:06.875Z,96265.75
2023-05-05T13:46:34.846Z,96256.16
2023-05-05T13:49:02.720Z,96251.19
2023-05-05T13:51:30.759Z,96259.22
2023-05-05T13:53:58.620Z,96262.56
2023-05-05T13:56:27.770Z,96258.00
2023-05-05T13:58:55.643Z,96246.88
2023-05-05T14:01:24.934Z,96244.81
2023-05-05T14:03:53.059Z,96248.00
2023-05-05T14:06:21.322Z,96237.25
2023-05-05T14:08:49.108Z,96243.56
2023-05-05T14:11:18.230Z,96246.03
2023-05-05T14:13:47.563Z,96245.25
2023-05-05T14:16:15.526Z,96247.50
2023-05-05T14:18:44.685Z,96235.81
2023-05-05T14:21:12.413Z,96232.03
2023-05-05T14:23:40.267Z,96233.22
2023-05-05T14:26:08.955Z,96230.47
2023-05-05T14:28:37.038Z,96220.69
2023-05-05T14:31:05.022Z,96219.31
2023-05-05T14:33:32.878Z,96216.97
2023-05-05T14:36:02.052Z,96225.88
2023-05-05T14:38:30.103Z,96227.47
2023-05-05T14:40:57.945Z,96235.69
2023-05-05T14:43:25.982Z,96228.47
2023-05-05T14:45:53.817Z,96243.91
2023-05-05T14:48:22.809Z,96240.34
2023-05-05T14:50:50.640Z,96237.22
2023-05-05T14:53:19.958Z,96240.22
2023-05-05T14:55:47.745Z,96235.91
2023-05-05T14:58:15.533Z,96244.72
2023-05-05T15:00:43.302Z,96244.63
2023-05-05T15:03:11.129Z,96244.72
2023-05-05T15:05:38.905Z,96247.47
2023-05-05T15:08:07.255Z,96229.91
2023-05-05T15:10:36.542Z,96241.72
2023-05-05T15:13:04.464Z,96246.97
2023-05-05T15:15:32.384Z,96254.59
2023-05-05T15:18:00.259Z,96251.94
2023-05-05T15:20:28.377Z,96267.72
2023-05-05T15:22:56.243Z,96275.22
2023-05-05T15:25:24.504Z,96277.91
2023-05-05T15:27:53.823Z,96293.53
2023-05-05T15:30:21.580Z,96328.47
2023-05-05T15:32:49.381Z,96347.59
2023-05-05T15:35:17.395Z,96372.44
2023-05-05T15:37:45.425Z,96376.06
2023-05-05T15:40:13.631Z,96369.25
2023-05-05T15:42:41.386Z,96361.13
2023-05-05T15:45:13.082Z,96362.03
2023-05-05T15:47:41.029Z,96366.34
2023-05-05T15:50:09.706Z,96392.75
2023-05-05T15:52:37.446Z,96385.50
2023-05-05T15:55:06.656Z,96379.16
2023-05-05T15:57:34.681Z,96388.84
2023-05-05T16:00:02.645Z,96383.81
2023-05-05T16:02:31.849Z,96399.06
2023-05-05T16:04:59.840Z,96385.00
2023-05-05T16:07:27.612Z,96397.19
2023-05-05T16:09:56.615Z,96407.75
2023-05-05T16:12:24.315Z,96451.31
2023-05-05T16:14:52.999Z,96471.69
2023-05-05T16:17:22.240Z,96461.47
2023-05-05T16:19:51.951Z,96466.03
2023-05-05T16:22:20.991Z,96462.78
2023-05-05T16:24:48.828Z,96465.53
2023-05-05T16:27:16.590Z,96470.97
2023-05-05T16:29:44.348Z,96484.47
2023-05-05T16:32:12.136Z,96478.88
2023-05-05T16:34:40.204Z,96485.78
2023-05-05T16:37:09.339Z,96480.53
2023-05-05T16:39:40.232Z,96478.63
2023-05-05T16:42:08.147Z,96461.31
2023-05-05T16:44:35.988Z,96461.81
2023-05-05T16:47:03.739Z,96466.34
2023-05-05T16:49:31.566Z,96460.75
2023-05-05T16:51:59.363Z,96463.19
2023-05-05T16:54:28.542Z,96462.00
2023-05-05T16:56:56.545Z,96456.91
2023-05-05T16:59:24.298Z,96454.94
2023-05-05T17:01:52.236Z,96464.59
2023-05-05T17:04:20.320Z,96461.88
2023-05-05T17:06:48.083Z,96460.78
2023-05-05T17:09:15.852Z,96466.84
2023-05-05T17:11:45.363Z,96466.63
2023-05-05T17:14:13.154Z,96469.22
2023-05-05T17:16:41.077Z,96466.00
2023-05-05T17:19:08.936Z,96455.00
2023-05-05T17:21:36.723Z,96465.91
2023-05-05T17:24:04.750Z,96457.91
2023-05-05T17:26:32.467Z,96478.44
2023-05-05T17:29:01.861Z,96482.44
2023-05-05T17:31:29.616Z,96491.88
2023-05-05T17:33:57.466Z,96496.13
2023-05-05T17:36:25.255Z,96503.13
2023-05-05T17:38:53.075Z,96504.16
2023-05-05T17:41:21.870Z,96500.88
2023-05-05T17:43:50.030Z,96506.34
2023-05-05T17:46:19.318Z,96503.34
2023-05-05T17:48:47.386Z,96517.91
2023-05-05T17:51:15.261Z,96508.69
2023-05-05T17:53:43.394Z,96523.59
2023-05-05T17:56:11.314Z,96517.72
2023-05-05T17:58:39.147Z,96527.63
2023-05-05T18:01:07.219Z,96527.22
2023-05-05T18:03:38.516Z,96526.94
2023-05-05T18:06:07.853Z,96529.66
2023-05-05T18:08:35.982Z,96531.88
2023-05-05T18:11:03.722Z,96528.63
2023-05-05T18:13:31.496Z,96530.91
2023-05-05T18:15:59.303Z,96529.13
2023-05-05T18:18:27.127Z,96536.47
2023-05-05T18:20:56.375Z,96533.84
2023-05-05T18:23:24.196Z,96533.91
2023-05-05T18:25:52.049Z,96530.41
2023-05-05T18:28:20.590Z,96532.03
2023-05-05T18:30:48.586Z,96546.38
2023-05-05T18:33:16.318Z,96543.94
2023-05-05T18:35:44.059Z,96525.81
2023-05-05T18:38:13.247Z,96548.00
2023-05-05T18:40:41.079Z,96542.56
2023-05-05T18:43:09.119Z,96545.28
2023-05-05T18:45:36.951Z,96545.81
2023-05-05T18:48:04.913Z,96553.31
2023-05-05T18:50:33.325Z,96551.66
2023-05-05T18:53:01.118Z,96548.78
2023-05-05T18:55:30.355Z,96559.28
2023-05-05T18:57:58.092Z,96565.13
2023-05-05T19:00:25.888Z,96562.41
2023-05-05T19:02:53.725Z,96561.91
2023-05-05T19:05:21.726Z,96570.50
2023-05-05T19:07:49.449Z,96562.66
2023-05-05T19:10:17.196Z,96573.75
2023-05-05T19:12:46.391Z,96572.13
2023-05-05T19:15:14.192Z,96574.53
2023-05-05T19:17:42.003Z,96575.31
2023-05-05T19:20:12.925Z,96573.72
2023-05-05T19:22:40.884Z,96561.31
2023-05-05T19:25:09.426Z,96574.59
2023-05-05T19:27:39.768Z,96569.47
2023-05-05T19:30:11.872Z,96572.19
2023-05-05T19:32:39.442Z,96578.47
2023-05-05T19:35:10.314Z,96570.63
2023-05-05T19:37:38.381Z,96573.88
2023-05-05T19:40:09.306Z,96582.25
2023-05-05T19:42:37.237Z,96592.47
2023-05-05T19:45:05.575Z,96584.09
2023-05-05T19:47:35.802Z,96581.94
2023-05-05T19:50:04.547Z,96591.94
2023-05-05T19:52:32.516Z,96601.91
2023-05-05T19:55:00.466Z,96589.41
2023-05-05T19:57:28.160Z,96599.66
2023-05-05T19:59:55.933Z,96603.00
2023-05-05T20:02:26.861Z,96602.66
2023-05-05T20:04:56.079Z,96594.56
2023-05-05T20:07:23.768Z,96597.81
2023-05-05T20:09:51.822Z,96597.28
2023-05-05T20:12:21.425Z,96599.31
2023-05-05T20:14:49.091Z,96604.56
2023-05-05T20:17:22.039Z,96611.38
2023-05-05T20:19:50.222Z,96614.75
2023-05-05T20:22:19.622Z,96613.44
2023-05-05T20:24:48.195Z,96606.06
2023-05-05T20:27:16.016Z,96611.44
2023-05-05T20:29:44.129Z,96616.72
2023-05-05T20:32:12.063Z,96616.88
2023-05-05T20:34:39.867Z,96576.78
2023-05-05T20:37:07.757Z,96620.03
2023-05-05T20:39:36.921Z,96612.66
2023-05-05T20:42:04.920Z,96619.66
2023-05-05T20:44:32.685Z,96617.88
2023-05-05T20:47:00.621Z,96624.25
2023-05-05T20:49:28.342Z,96626.50
2023-05-05T20:51:56.009Z,96630.81
2023-05-05T20:54:23.773Z,96627.56
2023-05-05T20:56:53.183Z,96626.97
2023-05-05T20:59:20.918Z,96627.66
2023-05-05T21:01:48.694Z,96620.63
2023-05-05T21:04:16.493Z,96623.81
2023-05-05T21:06:44.293Z,96623.97
2023-05-05T21:09:12.057Z,96618.19
2023-05-05T21:11:39.925Z,96618.25
2023-05-05T21:14:09.041Z,96613.78
2023-05-05T21:16:36.922Z,96614.47
2023-05-05T21:19:04.665Z,96607.66
2023-05-05T21:21:32.773Z,96608.16
2023-05-05T21:24:00.570Z,96611.44
2023-05-05T21:26:28.335Z,96608.63
2023-05-05T21:28:56.061Z,96605.66
2023-05-05T21:31:25.263Z,96599.84
2023-05-05T21:33:54.221Z,96608.78
2023-05-05T21:36:22.381Z,96609.31
2023-05-05T21:38:50.476Z,96606.69
2023-05-05T21:41:18.317Z,96606.09
2023-05-05T21:43:46.023Z,96606.50
2023-05-05T21:46:13.792Z,96601.41
2023-05-05T21:48:42.913Z,96599.25
2023-05-05T21:51:10.742Z,96597.53
2023-05-05T21:53:38.836Z,96600.75
2023-05-05T21:56:07.948Z,96600.50
2023-05-05T21:58:35.921Z,96603.44
2023-05-05T22:01:03.830Z,96597.97
2023-05-05T22:03:31.818Z,96600.41
2023-05-05T22:06:01.422Z,96592.69
2023-05-05T22:08:29.644Z,96584.13
2023-05-05T22:10:57.756Z,96592.94
2023-05-05T22:13:25.526Z,96592.50
2023-05-05T22:15:53.665Z,96584.28
2023-05-05T22:18:21.460Z,96577.66
2023-05-05T22:20:49.594Z,96576.53
2023-05-05T22:23:18.777Z,96578.63
2023-05-05T22:25:46.590Z,96576.38
2023-05-05T22:28:14.361Z,96578.63
2023-05-05T22:30:42.343Z,96575.22
2023-05-05T22:33:10.503Z,96578.63
2023-05-05T22:35:38.750Z,96577.13
2023-05-05T22:38:07.024Z,96548.88
2023-05-05T22:40:36.116Z,96572.97
2023-05-05T22:43:03.886Z,96574.72
2023-05-05T22:45:31.660Z,96577.13
2023-05-05T22:47:59.432Z,96582.31
2023-05-05T22:50:27.331Z,96580.59
2023-05-05T22:52:55.093Z,96573.63
2023-05-05T22:55:24.459Z,96578.00
2023-05-05T22:57:53.710Z,96580.69
2023-05-05T23:00:21.571Z,96591.38
2023-05-05T23:02:49.390Z,96562.50
2023-05-05T23:05:17.255Z,96585.56
2023-05-05T23:07:45.077Z,96576.66
2023-05-05T23:10:12.813Z,96561.06
2023-05-05T23:12:40.826Z,96568.66
2023-05-05T23:15:11.513Z,96573.44
2023-05-05T23:17:39.503Z,96575.75
2023-05-05T23:20:09.690Z,96581.75
2023-05-05T23:22:37.532Z,96578.00
2023-05-05T23:25:05.624Z,96583.63
2023-05-05T23:27:33.334Z,96582.81
2023-05-05T23:30:01.441Z,96579.22
2023-05-05T23:32:30.538Z,96573.00
2023-05-05T23:34:58.264Z,96570.97
2023-05-05T23:37:26.473Z,96565.47
2023-05-05T23:39:54.375Z,96562.81
2023-05-05T23:42:22.161Z,96573.69
2023-05-05T23:44:49.951Z,96565.72
2023-05-05T23:47:17.653Z,96562.16
2023-05-05T23:49:46.728Z,96570.94
2023-05-05T23:52:14.482Z,96562.69
2023-05-05T23:54:42.621Z,96562.75
2023-05-05T23:57:10.933Z,96568.19
2023-05-05T23:59:40.348Z,96574.56
